sensor_id;sensor_type;location;lat;lon;timestamp;P1;durP1;ratioP1;P2;durP2;ratioP2
8293;SDS011;4185;41.506;24.938;2024-03-29T00:00:43;17.47;;;5.03;;
8293;SDS011;4185;41.506;24.938;2024-03-29T00:03:09;16.03;;;4.67;;
8293;SDS011;4185;41.506;24.938;2024-03-29T00:05:35;24.80;;;5.30;;
8293;SDS011;4185;41.506;24.938;2024-03-29T00:08:01;16.00;;;4.83;;
8293;SDS011;4185;41.506;24.938;2024-03-29T00:10:27;17.40;;;5.17;;
8293;SDS011;4185;41.506;24.938;2024-03-29T00:12:54;13.60;;;5.33;;
8293;SDS011;4185;41.506;24.938;2024-03-29T00:15:20;14.03;;;5.07;;
8293;SDS011;4185;41.506;24.938;2024-03-29T00:17:46;20.43;;;6.90;;
8293;SDS011;4185;41.506;24.938;2024-03-29T00:20:12;18.20;;;5.50;;
8293;SDS011;4185;41.506;24.938;2024-03-29T00:22:37;29.07;;;7.43;;
8293;SDS011;4185;41.506;24.938;2024-03-29T00:25:03;16.67;;;5.97;;
8293;SDS011;4185;41.506;24.938;2024-03-29T00:27:30;22.73;;;6.73;;
8293;SDS011;4185;41.506;24.938;2024-03-29T00:29:57;21.93;;;7.13;;
8293;SDS011;4185;41.506;24.938;2024-03-29T00:32:22;13.73;;;5.57;;
8293;SDS011;4185;41.506;24.938;2024-03-29T00:34:49;15.33;;;5.67;;
8293;SDS011;4185;41.506;24.938;2024-03-29T00:37:15;17.37;;;5.63;;
8293;SDS011;4185;41.506;24.938;2024-03-29T00:39:41;23.17;;;5.23;;
8293;SDS011;4185;41.506;24.938;2024-03-29T00:42:07;14.83;;;5.93;;
8293;SDS011;4185;41.506;24.938;2024-03-29T00:44:33;16.10;;;5.87;;
8293;SDS011;4185;41.506;24.938;2024-03-29T00:47:01;14.47;;;5.60;;
8293;SDS011;4185;41.506;24.938;2024-03-29T00:49:26;15.53;;;5.50;;
8293;SDS011;4185;41.506;24.938;2024-03-29T00:51:52;17.73;;;5.23;;
8293;SDS011;4185;41.506;24.938;2024-03-29T00:54:18;14.60;;;5.13;;
8293;SDS011;4185;41.506;24.938;2024-03-29T00:56:44;18.30;;;5.27;;
8293;SDS011;4185;41.506;24.938;2024-03-29T00:59:10;12.50;;;4.60;;
8293;SDS011;4185;41.506;24.938;2024-03-29T01:01:35;14.53;;;4.53;;
8293;SDS011;4185;41.506;24.938;2024-03-29T01:04:03;14.40;;;4.63;;
8293;SDS011;4185;41.506;24.938;2024-03-29T01:06:29;16.33;;;4.70;;
8293;SDS011;4185;41.506;24.938;2024-03-29T01:08:54;11.90;;;5.10;;
8293;SDS011;4185;41.506;24.938;2024-03-29T01:11:20;10.77;;;4.87;;
8293;SDS011;4185;41.506;24.938;2024-03-29T01:13:46;14.80;;;5.50;;
8293;SDS011;4185;41.506;24.938;2024-03-29T01:16:12;19.43;;;5.63;;
8293;SDS011;4185;41.506;24.938;2024-03-29T01:18:40;18.20;;;5.63;;
8293;SDS011;4185;41.506;24.938;2024-03-29T01:21:07;18.37;;;5.10;;
8293;SDS011;4185;41.506;24.938;2024-03-29T01:23:33;17.43;;;5.53;;
8293;SDS011;4185;41.506;24.938;2024-03-29T01:25:59;14.33;;;4.90;;
8293;SDS011;4185;41.506;24.938;2024-03-29T01:28:25;11.53;;;4.67;;
8293;SDS011;4185;41.506;24.938;2024-03-29T01:30:51;16.67;;;5.70;;
8293;SDS011;4185;41.506;24.938;2024-03-29T01:33:17;18.10;;;5.83;;
8293;SDS011;4185;41.506;24.938;2024-03-29T01:35:43;14.77;;;4.70;;
8293;SDS011;4185;41.506;24.938;2024-03-29T01:38:10;15.13;;;4.43;;
8293;SDS011;4185;41.506;24.938;2024-03-29T01:40:36;12.80;;;4.40;;
8293;SDS011;4185;41.506;24.938;2024-03-29T01:43:02;12.00;;;4.67;;
8293;SDS011;4185;41.506;24.938;2024-03-29T01:45:28;16.13;;;4.80;;
8293;SDS011;4185;41.506;24.938;2024-03-29T01:47:56;17.17;;;4.63;;
8293;SDS011;4185;41.506;24.938;2024-03-29T01:50:22;10.83;;;5.10;;
8293;SDS011;4185;41.506;24.938;2024-03-29T01:52:49;13.13;;;4.70;;
8293;SDS011;4185;41.506;24.938;2024-03-29T01:55:18;17.53;;;4.47;;
8293;SDS011;4185;41.506;24.938;2024-03-29T01:57:45;14.57;;;5.17;;
8293;SDS011;4185;41.506;24.938;2024-03-29T02:00:12;13.70;;;5.57;;
8293;SDS011;4185;41.506;24.938;2024-03-29T02:02:39;16.83;;;8.13;;
8293;SDS011;4185;41.506;24.938;2024-03-29T02:05:06;16.47;;;7.83;;
8293;SDS011;4185;41.506;24.938;2024-03-29T02:07:33;23.20;;;7.53;;
8293;SDS011;4185;41.506;24.938;2024-03-29T02:10:01;25.90;;;10.63;;
8293;SDS011;4185;41.506;24.938;2024-03-29T02:12:30;21.80;;;9.50;;
8293;SDS011;4185;41.506;24.938;2024-03-29T02:14:56;16.27;;;8.17;;
8293;SDS011;4185;41.506;24.938;2024-03-29T02:17:25;17.80;;;8.73;;
8293;SDS011;4185;41.506;24.938;2024-03-29T02:19:51;15.63;;;7.97;;
8293;SDS011;4185;41.506;24.938;2024-03-29T02:22:18;16.17;;;7.33;;
8293;SDS011;4185;41.506;24.938;2024-03-29T02:24:49;19.67;;;5.57;;
8293;SDS011;4185;41.506;24.938;2024-03-29T02:27:17;19.37;;;5.40;;
8293;SDS011;4185;41.506;24.938;2024-03-29T02:29:44;17.37;;;5.40;;
8293;SDS011;4185;41.506;24.938;2024-03-29T02:32:11;12.10;;;4.80;;
8293;SDS011;4185;41.506;24.938;2024-03-29T02:34:38;15.80;;;5.40;;
8293;SDS011;4185;41.506;24.938;2024-03-29T02:37:04;13.73;;;4.80;;
8293;SDS011;4185;41.506;24.938;2024-03-29T02:39:32;13.43;;;4.93;;
8293;SDS011;4185;41.506;24.938;2024-03-29T02:42:00;13.23;;;5.57;;
8293;SDS011;4185;41.506;24.938;2024-03-29T02:44:26;17.47;;;5.70;;
8293;SDS011;4185;41.506;24.938;2024-03-29T02:46:53;12.73;;;4.60;;
8293;SDS011;4185;41.506;24.938;2024-03-29T02:49:20;16.10;;;5.57;;
8293;SDS011;4185;41.506;24.938;2024-03-29T02:51:45;19.30;;;4.87;;
8293;SDS011;4185;41.506;24.938;2024-03-29T02:54:14;19.13;;;6.37;;
8293;SDS011;4185;41.506;24.938;2024-03-29T02:56:40;15.17;;;5.07;;
8293;SDS011;4185;41.506;24.938;2024-03-29T02:59:08;15.47;;;6.63;;
8293;SDS011;4185;41.506;24.938;2024-03-29T03:01:34;14.73;;;6.47;;
8293;SDS011;4185;41.506;24.938;2024-03-29T03:04:00;12.87;;;5.60;;
8293;SDS011;4185;41.506;24.938;2024-03-29T03:06:26;20.50;;;8.30;;
8293;SDS011;4185;41.506;24.938;2024-03-29T03:08:53;12.63;;;5.73;;
8293;SDS011;4185;41.506;24.938;2024-03-29T03:11:37;16.97;;;5.57;;
8293;SDS011;4185;41.506;24.938;2024-03-29T03:14:04;19.03;;;6.27;;
8293;SDS011;4185;41.506;24.938;2024-03-29T03:16:32;16.70;;;5.73;;
8293;SDS011;4185;41.506;24.938;2024-03-29T03:18:58;14.37;;;5.50;;
8293;SDS011;4185;41.506;24.938;2024-03-29T03:21:27;15.20;;;6.07;;
8293;SDS011;4185;41.506;24.938;2024-03-29T03:23:53;13.17;;;5.83;;
8293;SDS011;4185;41.506;24.938;2024-03-29T03:26:20;12.37;;;5.70;;
8293;SDS011;4185;41.506;24.938;2024-03-29T03:28:47;14.60;;;5.50;;
8293;SDS011;4185;41.506;24.938;2024-03-29T03:31:16;13.47;;;5.30;;
8293;SDS011;4185;41.506;24.938;2024-03-29T03:33:43;11.53;;;5.57;;
8293;SDS011;4185;41.506;24.938;2024-03-29T03:36:09;15.70;;;5.00;;
8293;SDS011;4185;41.506;24.938;2024-03-29T03:38:35;14.80;;;6.13;;
8293;SDS011;4185;41.506;24.938;2024-03-29T03:41:03;14.37;;;5.87;;
8293;SDS011;4185;41.506;24.938;2024-03-29T03:43:29;14.43;;;4.93;;
8293;SDS011;4185;41.506;24.938;2024-03-29T03:45:59;13.70;;;5.77;;
8293;SDS011;4185;41.506;24.938;2024-03-29T03:48:26;13.63;;;5.33;;
8293;SDS011;4185;41.506;24.938;2024-03-29T03:50:55;11.47;;;6.10;;
8293;SDS011;4185;41.506;24.938;2024-03-29T03:53:21;11.30;;;4.80;;
8293;SDS011;4185;41.506;24.938;2024-03-29T03:55:47;14.70;;;5.23;;
8293;SDS011;4185;41.506;24.938;2024-03-29T03:58:13;19.53;;;6.43;;
8293;SDS011;4185;41.506;24.938;2024-03-29T04:00:40;19.77;;;6.00;;
8293;SDS011;4185;41.506;24.938;2024-03-29T04:03:06;16.90;;;5.97;;
8293;SDS011;4185;41.506;24.938;2024-03-29T04:05:36;11.37;;;5.10;;
8293;SDS011;4185;41.506;24.938;2024-03-29T04:08:03;19.17;;;5.90;;
8293;SDS011;4185;41.506;24.938;2024-03-29T04:10:31;20.80;;;7.30;;
8293;SDS011;4185;41.506;24.938;2024-03-29T04:12:56;16.67;;;8.67;;
8293;SDS011;4185;41.506;24.938;2024-03-29T04:15:23;13.50;;;6.57;;
8293;SDS011;4185;41.506;24.938;2024-03-29T04:17:49;18.27;;;8.27;;
8293;SDS011;4185;41.506;24.938;2024-03-29T04:20:16;17.50;;;7.93;;
8293;SDS011;4185;41.506;24.938;2024-03-29T04:22:42;12.00;;;6.97;;
8293;SDS011;4185;41.506;24.938;2024-03-29T04:25:11;16.87;;;6.40;;
8293;SDS011;4185;41.506;24.938;2024-03-29T04:27:37;17.87;;;6.00;;
8293;SDS011;4185;41.506;24.938;2024-03-29T04:30:07;18.33;;;7.03;;
8293;SDS011;4185;41.506;24.938;2024-03-29T04:32:33;14.20;;;6.63;;
8293;SDS011;4185;41.506;24.938;2024-03-29T04:35:00;11.90;;;6.00;;
8293;SDS011;4185;41.506;24.938;2024-03-29T04:37:26;12.13;;;6.03;;
8293;SDS011;4185;41.506;24.938;2024-03-29T04:39:52;16.43;;;5.93;;
8293;SDS011;4185;41.506;24.938;2024-03-29T04:42:21;17.97;;;7.43;;
8293;SDS011;4185;41.506;24.938;2024-03-29T04:44:47;15.30;;;5.90;;
8293;SDS011;4185;41.506;24.938;2024-03-29T04:47:14;13.83;;;6.83;;
8293;SDS011;4185;41.506;24.938;2024-03-29T04:49:41;20.77;;;8.43;;
8293;SDS011;4185;41.506;24.938;2024-03-29T04:52:08;16.10;;;8.47;;
8293;SDS011;4185;41.506;24.938;2024-03-29T04:54:35;15.67;;;7.13;;
8293;SDS011;4185;41.506;24.938;2024-03-29T04:57:02;14.73;;;6.20;;
8293;SDS011;4185;41.506;24.938;2024-03-29T04:59:32;14.67;;;6.13;;
8293;SDS011;4185;41.506;24.938;2024-03-29T05:01:59;15.07;;;6.20;;
8293;SDS011;4185;41.506;24.938;2024-03-29T05:04:26;18.23;;;8.70;;
8293;SDS011;4185;41.506;24.938;2024-03-29T05:06:53;18.43;;;8.43;;
8293;SDS011;4185;41.506;24.938;2024-03-29T05:09:21;15.80;;;9.03;;
8293;SDS011;4185;41.506;24.938;2024-03-29T05:11:48;18.93;;;8.67;;
8293;SDS011;4185;41.506;24.938;2024-03-29T05:14:15;13.80;;;7.90;;
8293;SDS011;4185;41.506;24.938;2024-03-29T05:16:44;14.47;;;6.77;;
8293;SDS011;4185;41.506;24.938;2024-03-29T05:19:11;17.53;;;8.00;;
8293;SDS011;4185;41.506;24.938;2024-03-29T05:21:39;17.47;;;7.97;;
8293;SDS011;4185;41.506;24.938;2024-03-29T05:24:06;37.47;;;20.30;;
8293;SDS011;4185;41.506;24.938;2024-03-29T05:26:33;20.43;;;9.30;;
8293;SDS011;4185;41.506;24.938;2024-03-29T05:29:00;15.40;;;5.83;;
8293;SDS011;4185;41.506;24.938;2024-03-29T05:31:29;12.67;;;5.87;;
8293;SDS011;4185;41.506;24.938;2024-03-29T05:33:57;32.10;;;16.40;;
8293;SDS011;4185;41.506;24.938;2024-03-29T05:36:25;15.57;;;10.33;;
8293;SDS011;4185;41.506;24.938;2024-03-29T05:38:52;17.20;;;7.80;;
8293;SDS011;4185;41.506;24.938;2024-03-29T05:41:19;11.63;;;6.70;;
8293;SDS011;4185;41.506;24.938;2024-03-29T05:43:45;19.73;;;5.53;;
8293;SDS011;4185;41.506;24.938;2024-03-29T05:46:14;7.10;;;4.70;;
8293;SDS011;4185;41.506;24.938;2024-03-29T05:48:41;12.77;;;5.97;;
8293;SDS011;4185;41.506;24.938;2024-03-29T05:51:10;17.30;;;6.00;;
8293;SDS011;4185;41.506;24.938;2024-03-29T05:53:36;18.67;;;7.33;;
8293;SDS011;4185;41.506;24.938;2024-03-29T05:56:03;14.00;;;4.47;;
8293;SDS011;4185;41.506;24.938;2024-03-29T05:58:30;13.03;;;4.40;;
8293;SDS011;4185;41.506;24.938;2024-03-29T06:00:57;12.90;;;5.00;;
8293;SDS011;4185;41.506;24.938;2024-03-29T06:03:24;13.87;;;5.17;;
8293;SDS011;4185;41.506;24.938;2024-03-29T06:05:50;17.90;;;4.90;;
8293;SDS011;4185;41.506;24.938;2024-03-29T06:08:19;9.23;;;5.20;;
8293;SDS011;4185;41.506;24.938;2024-03-29T06:10:46;11.37;;;4.80;;
8293;SDS011;4185;41.506;24.938;2024-03-29T06:13:13;9.73;;;5.20;;
8293;SDS011;4185;41.506;24.938;2024-03-29T06:15:54;9.43;;;4.97;;
8293;SDS011;4185;41.506;24.938;2024-03-29T06:18:38;15.10;;;5.73;;
8293;SDS011;4185;41.506;24.938;2024-03-29T06:21:05;12.13;;;6.23;;
8293;SDS011;4185;41.506;24.938;2024-03-29T06:23:33;14.23;;;6.77;;
8293;SDS011;4185;41.506;24.938;2024-03-29T06:26:00;16.53;;;5.90;;
8293;SDS011;4185;41.506;24.938;2024-03-29T06:28:27;11.43;;;5.40;;
8293;SDS011;4185;41.506;24.938;2024-03-29T06:30:54;12.40;;;4.90;;
8293;SDS011;4185;41.506;24.938;2024-03-29T06:33:21;16.47;;;5.00;;
8293;SDS011;4185;41.506;24.938;2024-03-29T06:35:52;17.70;;;5.43;;
8293;SDS011;4185;41.506;24.938;2024-03-29T06:38:19;12.50;;;4.90;;
8293;SDS011;4185;41.506;24.938;2024-03-29T06:40:47;17.17;;;5.33;;
8293;SDS011;4185;41.506;24.938;2024-03-29T06:43:14;15.53;;;4.73;;
8293;SDS011;4185;41.506;24.938;2024-03-29T06:45:41;8.93;;;4.77;;
8293;SDS011;4185;41.506;24.938;2024-03-29T06:48:09;11.50;;;4.40;;
8293;SDS011;4185;41.506;24.938;2024-03-29T06:50:37;12.07;;;4.47;;
8293;SDS011;4185;41.506;24.938;2024-03-29T06:53:05;14.70;;;4.23;;
8293;SDS011;4185;41.506;24.938;2024-03-29T06:55:34;9.47;;;3.97;;
8293;SDS011;4185;41.506;24.938;2024-03-29T06:58:03;9.30;;;4.20;;
8293;SDS011;4185;41.506;24.938;2024-03-29T07:00:30;14.37;;;3.70;;
8293;SDS011;4185;41.506;24.938;2024-03-29T07:02:57;12.00;;;3.47;;
8293;SDS011;4185;41.506;24.938;2024-03-29T07:05:23;10.07;;;3.30;;
8293;SDS011;4185;41.506;24.938;2024-03-29T07:07:49;14.17;;;3.33;;
8293;SDS011;4185;41.506;24.938;2024-03-29T07:10:16;9.27;;;3.47;;
8293;SDS011;4185;41.506;24.938;2024-03-29T07:12:43;11.10;;;3.50;;
8293;SDS011;4185;41.506;24.938;2024-03-29T07:15:11;9.80;;;3.07;;
8293;SDS011;4185;41.506;24.938;2024-03-29T07:17:38;6.60;;;2.60;;
8293;SDS011;4185;41.506;24.938;2024-03-29T07:20:05;9.23;;;3.30;;
8293;SDS011;4185;41.506;24.938;2024-03-29T07:22:33;10.73;;;3.23;;
8293;SDS011;4185;41.506;24.938;2024-03-29T07:25:00;9.73;;;2.77;;
8293;SDS011;4185;41.506;24.938;2024-03-29T07:27:26;8.13;;;2.50;;
8293;SDS011;4185;41.506;24.938;2024-03-29T07:29:57;8.57;;;2.63;;
8293;SDS011;4185;41.506;24.938;2024-03-29T07:32:27;9.30;;;4.40;;
8293;SDS011;4185;41.506;24.938;2024-03-29T07:34:55;5.90;;;2.93;;
8293;SDS011;4185;41.506;24.938;2024-03-29T07:37:23;9.20;;;2.50;;
8293;SDS011;4185;41.506;24.938;2024-03-29T07:39:50;8.17;;;2.33;;
8293;SDS011;4185;41.506;24.938;2024-03-29T07:42:17;7.30;;;2.27;;
8293;SDS011;4185;41.506;24.938;2024-03-29T07:44:44;3.97;;;2.40;;
8293;SDS011;4185;41.506;24.938;2024-03-29T07:47:11;6.43;;;2.70;;
8293;SDS011;4185;41.506;24.938;2024-03-29T07:49:39;12.97;;;9.53;;
8293;SDS011;4185;41.506;24.938;2024-03-29T07:52:06;10.70;;;5.30;;
8293;SDS011;4185;41.506;24.938;2024-03-29T07:54:34;10.90;;;4.07;;
8293;SDS011;4185;41.506;24.938;2024-03-29T07:57:01;31.67;;;11.70;;
8293;SDS011;4185;41.506;24.938;2024-03-29T07:59:27;8.77;;;3.70;;
8293;SDS011;4185;41.506;24.938;2024-03-29T08:01:54;7.70;;;2.50;;
8293;SDS011;4185;41.506;24.938;2024-03-29T08:04:23;10.07;;;2.47;;
8293;SDS011;4185;41.506;24.938;2024-03-29T08:06:52;4.70;;;2.53;;
8293;SDS011;4185;41.506;24.938;2024-03-29T08:09:20;11.07;;;4.17;;
8293;SDS011;4185;41.506;24.938;2024-03-29T08:11:47;14.20;;;5.93;;
8293;SDS011;4185;41.506;24.938;2024-03-29T08:14:13;12.60;;;5.60;;
8293;SDS011;4185;41.506;24.938;2024-03-29T08:16:40;10.60;;;5.60;;
8293;SDS011;4185;41.506;24.938;2024-03-29T08:19:07;12.83;;;3.30;;
8293;SDS011;4185;41.506;24.938;2024-03-29T08:21:34;7.67;;;3.17;;
8293;SDS011;4185;41.506;24.938;2024-03-29T08:24:03;6.33;;;1.90;;
8293;SDS011;4185;41.506;24.938;2024-03-29T08:26:30;10.70;;;3.33;;
8293;SDS011;4185;41.506;24.938;2024-03-29T08:28:57;5.37;;;2.17;;
8293;SDS011;4185;41.506;24.938;2024-03-29T08:31:24;5.93;;;2.17;;
8293;SDS011;4185;41.506;24.938;2024-03-29T08:33:50;6.73;;;2.73;;
8293;SDS011;4185;41.506;24.938;2024-03-29T08:36:17;11.07;;;5.00;;
8293;SDS011;4185;41.506;24.938;2024-03-29T08:38:44;7.07;;;2.47;;
8293;SDS011;4185;41.506;24.938;2024-03-29T08:41:13;3.27;;;1.00;;
8293;SDS011;4185;41.506;24.938;2024-03-29T08:43:40;5.17;;;1.30;;
8293;SDS011;4185;41.506;24.938;2024-03-29T08:46:07;3.23;;;1.33;;
8293;SDS011;4185;41.506;24.938;2024-03-29T08:48:34;3.53;;;1.67;;
8293;SDS011;4185;41.506;24.938;2024-03-29T08:51:02;3.23;;;1.63;;
8293;SDS011;4185;41.506;24.938;2024-03-29T08:53:29;4.83;;;1.20;;
8293;SDS011;4185;41.506;24.938;2024-03-29T08:55:56;2.43;;;1.23;;
8293;SDS011;4185;41.506;24.938;2024-03-29T08:58:24;2.60;;;1.00;;
8293;SDS011;4185;41.506;24.938;2024-03-29T09:00:54;3.80;;;1.00;;
8293;SDS011;4185;41.506;24.938;2024-03-29T09:03:22;5.73;;;1.00;;
8293;SDS011;4185;41.506;24.938;2024-03-29T09:05:50;3.87;;;1.27;;
8293;SDS011;4185;41.506;24.938;2024-03-29T09:08:17;3.90;;;1.27;;
8293;SDS011;4185;41.506;24.938;2024-03-29T09:10:44;1.83;;;1.00;;
8293;SDS011;4185;41.506;24.938;2024-03-29T09:13:11;2.30;;;0.80;;
8293;SDS011;4185;41.506;24.938;2024-03-29T09:15:39;3.60;;;1.33;;
8293;SDS011;4185;41.506;24.938;2024-03-29T09:18:07;4.33;;;1.70;;
8293;SDS011;4185;41.506;24.938;2024-03-29T09:20:42;2.43;;;0.83;;
8293;SDS011;4185;41.506;24.938;2024-03-29T09:23:09;1.97;;;0.97;;
8293;SDS011;4185;41.506;24.938;2024-03-29T09:25:39;2.70;;;1.20;;
8293;SDS011;4185;41.506;24.938;2024-03-29T09:28:06;4.73;;;1.20;;
8293;SDS011;4185;41.506;24.938;2024-03-29T09:30:35;3.60;;;0.90;;
8293;SDS011;4185;41.506;24.938;2024-03-29T09:33:03;2.77;;;1.10;;
8293;SDS011;4185;41.506;24.938;2024-03-29T09:35:32;1.00;;;0.90;;
8293;SDS011;4185;41.506;24.938;2024-03-29T09:37:59;2.83;;;1.10;;
8293;SDS011;4185;41.506;24.938;2024-03-29T09:40:25;2.17;;;0.90;;
8293;SDS011;4185;41.506;24.938;2024-03-29T09:42:54;1.73;;;1.10;;
8293;SDS011;4185;41.506;24.938;2024-03-29T09:45:27;2.83;;;0.90;;
8293;SDS011;4185;41.506;24.938;2024-03-29T09:47:58;2.80;;;0.90;;
8293;SDS011;4185;41.506;24.938;2024-03-29T09:50:27;5.87;;;1.07;;
8293;SDS011;4185;41.506;24.938;2024-03-29T09:52:55;2.37;;;1.20;;
8293;SDS011;4185;41.506;24.938;2024-03-29T09:55:24;2.37;;;0.90;;
8293;SDS011;4185;41.506;24.938;2024-03-29T09:57:51;3.60;;;1.10;;
8293;SDS011;4185;41.506;24.938;2024-03-29T10:00:18;3.87;;;1.10;;
8293;SDS011;4185;41.506;24.938;2024-03-29T10:02:45;1.90;;;1.20;;
8293;SDS011;4185;41.506;24.938;2024-03-29T10:05:15;7.33;;;1.83;;
8293;SDS011;4185;41.506;24.938;2024-03-29T10:07:44;4.67;;;1.60;;
8293;SDS011;4185;41.506;24.938;2024-03-29T10:10:12;3.67;;;1.57;;
8293;SDS011;4185;41.506;24.938;2024-03-29T10:12:39;5.03;;;1.70;;
8293;SDS011;4185;41.506;24.938;2024-03-29T10:15:06;5.57;;;2.07;;
8293;SDS011;4185;41.506;24.938;2024-03-29T10:17:39;4.77;;;1.60;;
8293;SDS011;4185;41.506;24.938;2024-03-29T10:20:06;7.70;;;1.97;;
8293;SDS011;4185;41.506;24.938;2024-03-29T10:22:35;7.20;;;1.60;;
8293;SDS011;4185;41.506;24.938;2024-03-29T10:25:04;4.60;;;1.50;;
8293;SDS011;4185;41.506;24.938;2024-03-29T10:27:31;3.47;;;1.60;;
8293;SDS011;4185;41.506;24.938;2024-03-29T10:29:58;7.60;;;1.93;;
8293;SDS011;4185;41.506;24.938;2024-03-29T10:32:25;7.53;;;1.70;;
8293;SDS011;4185;41.506;24.938;2024-03-29T10:34:52;7.20;;;1.83;;
8293;SDS011;4185;41.506;24.938;2024-03-29T10:37:19;7.33;;;1.77;;
8293;SDS011;4185;41.506;24.938;2024-03-29T10:39:51;5.07;;;2.17;;
8293;SDS011;4185;41.506;24.938;2024-03-29T10:42:20;10.57;;;2.10;;
8293;SDS011;4185;41.506;24.938;2024-03-29T10:44:48;9.83;;;2.97;;
8293;SDS011;4185;41.506;24.938;2024-03-29T10:47:17;4.37;;;2.00;;
8293;SDS011;4185;41.506;24.938;2024-03-29T10:49:46;3.97;;;1.40;;
8293;SDS011;4185;41.506;24.938;2024-03-29T10:52:16;4.30;;;1.70;;
8293;SDS011;4185;41.506;24.938;2024-03-29T10:54:44;4.43;;;1.53;;
8293;SDS011;4185;41.506;24.938;2024-03-29T10:57:12;8.93;;;2.20;;
8293;SDS011;4185;41.506;24.938;2024-03-29T10:59:49;6.47;;;2.00;;
8293;SDS011;4185;41.506;24.938;2024-03-29T11:02:27;5.63;;;2.00;;
8293;SDS011;4185;41.506;24.938;2024-03-29T11:05:02;7.00;;;2.10;;
8293;SDS011;4185;41.506;24.938;2024-03-29T11:07:33;9.23;;;2.10;;
8293;SDS011;4185;41.506;24.938;2024-03-29T11:10:01;3.37;;;1.60;;
8293;SDS011;4185;41.506;24.938;2024-03-29T11:12:30;5.73;;;1.57;;
8293;SDS011;4185;41.506;24.938;2024-03-29T11:15:10;7.07;;;2.03;;
8293;SDS011;4185;41.506;24.938;2024-03-29T11:17:45;5.10;;;1.70;;
8293;SDS011;4185;41.506;24.938;2024-03-29T11:20:13;5.03;;;1.63;;
8293;SDS011;4185;41.506;24.938;2024-03-29T11:22:43;4.70;;;2.23;;
8293;SDS011;4185;41.506;24.938;2024-03-29T11:25:11;4.00;;;1.60;;
8293;SDS011;4185;41.506;24.938;2024-03-29T11:27:39;5.53;;;2.00;;
8293;SDS011;4185;41.506;24.938;2024-03-29T11:30:06;8.00;;;1.93;;
8293;SDS011;4185;41.506;24.938;2024-03-29T11:32:35;7.27;;;1.97;;
8293;SDS011;4185;41.506;24.938;2024-03-29T11:35:04;7.97;;;2.13;;
8293;SDS011;4185;41.506;24.938;2024-03-29T11:37:31;6.43;;;2.10;;
8293;SDS011;4185;41.506;24.938;2024-03-29T11:39:58;5.93;;;2.13;;
8293;SDS011;4185;41.506;24.938;2024-03-29T11:42:36;6.90;;;1.77;;
8293;SDS011;4185;41.506;24.938;2024-03-29T11:45:04;8.03;;;1.67;;
8293;SDS011;4185;41.506;24.938;2024-03-29T11:47:32;8.10;;;2.00;;
8293;SDS011;4185;41.506;24.938;2024-03-29T11:50:02;6.87;;;2.00;;
8293;SDS011;4185;41.506;24.938;2024-03-29T11:52:29;8.03;;;2.17;;
8293;SDS011;4185;41.506;24.938;2024-03-29T11:54:55;8.67;;;2.17;;
8293;SDS011;4185;41.506;24.938;2024-03-29T11:57:24;5.97;;;1.83;;
8293;SDS011;4185;41.506;24.938;2024-03-29T11:59:50;8.90;;;2.20;;
8293;SDS011;4185;41.506;24.938;2024-03-29T12:02:17;8.17;;;2.20;;
8293;SDS011;4185;41.506;24.938;2024-03-29T12:04:44;6.27;;;1.80;;
8293;SDS011;4185;41.506;24.938;2024-03-29T12:07:11;9.50;;;2.30;;
8293;SDS011;4185;41.506;24.938;2024-03-29T12:09:38;8.33;;;2.13;;
8293;SDS011;4185;41.506;24.938;2024-03-29T12:12:05;8.43;;;2.60;;
8293;SDS011;4185;41.506;24.938;2024-03-29T12:14:35;5.77;;;1.80;;
8293;SDS011;4185;41.506;24.938;2024-03-29T12:17:08;10.87;;;2.37;;
8293;SDS011;4185;41.506;24.938;2024-03-29T12:19:35;9.00;;;2.47;;
8293;SDS011;4185;41.506;24.938;2024-03-29T12:22:04;8.13;;;2.87;;
8293;SDS011;4185;41.506;24.938;2024-03-29T12:24:32;9.47;;;2.47;;
8293;SDS011;4185;41.506;24.938;2024-03-29T12:26:59;11.43;;;1.97;;
8293;SDS011;4185;41.506;24.938;2024-03-29T12:29:26;6.47;;;2.07;;
8293;SDS011;4185;41.506;24.938;2024-03-29T12:31:56;11.83;;;3.00;;
8293;SDS011;4185;41.506;24.938;2024-03-29T12:34:24;8.93;;;2.60;;
8293;SDS011;4185;41.506;24.938;2024-03-29T12:36:51;9.33;;;2.37;;
8293;SDS011;4185;41.506;24.938;2024-03-29T12:39:17;7.07;;;2.23;;
8293;SDS011;4185;41.506;24.938;2024-03-29T12:41:47;8.33;;;2.23;;
8293;SDS011;4185;41.506;24.938;2024-03-29T12:44:14;12.20;;;2.67;;
8293;SDS011;4185;41.506;24.938;2024-03-29T12:46:41;18.17;;;2.90;;
8293;SDS011;4185;41.506;24.938;2024-03-29T12:49:10;8.53;;;2.30;;
8293;SDS011;4185;41.506;24.938;2024-03-29T12:51:38;11.37;;;3.10;;
8293;SDS011;4185;41.506;24.938;2024-03-29T12:54:06;9.00;;;2.60;;
8293;SDS011;4185;41.506;24.938;2024-03-29T12:56:35;8.83;;;2.60;;
8293;SDS011;4185;41.506;24.938;2024-03-29T12:59:05;11.63;;;2.70;;
8293;SDS011;4185;41.506;24.938;2024-03-29T13:01:31;8.20;;;2.47;;
8293;SDS011;4185;41.506;24.938;2024-03-29T13:03:58;8.67;;;2.47;;
8293;SDS011;4185;41.506;24.938;2024-03-29T13:06:25;11.70;;;3.20;;
8293;SDS011;4185;41.506;24.938;2024-03-29T13:08:52;7.17;;;2.73;;
8293;SDS011;4185;41.506;24.938;2024-03-29T13:11:21;12.90;;;2.83;;
8293;SDS011;4185;41.506;24.938;2024-03-29T13:13:48;9.77;;;2.80;;
8293;SDS011;4185;41.506;24.938;2024-03-29T13:16:16;7.77;;;3.47;;
8293;SDS011;4185;41.506;24.938;2024-03-29T13:18:43;8.87;;;2.77;;
8293;SDS011;4185;41.506;24.938;2024-03-29T13:21:10;8.97;;;3.17;;
8293;SDS011;4185;41.506;24.938;2024-03-29T13:23:36;12.52;;;3.60;;
8293;SDS011;4185;41.506;24.938;2024-03-29T13:26:03;9.73;;;3.47;;
8293;SDS011;4185;41.506;24.938;2024-03-29T13:28:31;10.50;;;3.37;;
8293;SDS011;4185;41.506;24.938;2024-03-29T13:30:57;8.70;;;3.30;;
8293;SDS011;4185;41.506;24.938;2024-03-29T13:33:26;8.83;;;2.93;;
8293;SDS011;4185;41.506;24.938;2024-03-29T13:35:53;11.13;;;4.00;;
8293;SDS011;4185;41.506;24.938;2024-03-29T13:38:22;10.43;;;3.20;;
8293;SDS011;4185;41.506;24.938;2024-03-29T13:40:51;14.45;;;3.80;;
8293;SDS011;4185;41.506;24.938;2024-03-29T13:43:18;11.17;;;2.90;;
8293;SDS011;4185;41.506;24.938;2024-03-29T13:45:47;12.33;;;3.20;;
8293;SDS011;4185;41.506;24.938;2024-03-29T13:48:14;8.32;;;2.88;;
8293;SDS011;4185;41.506;24.938;2024-03-29T13:50:42;11.23;;;3.27;;
8293;SDS011;4185;41.506;24.938;2024-03-29T13:53:09;9.05;;;3.00;;
8293;SDS011;4185;41.506;24.938;2024-03-29T13:55:35;6.88;;;3.10;;
8293;SDS011;4185;41.506;24.938;2024-03-29T13:58:02;12.05;;;3.00;;
8293;SDS011;4185;41.506;24.938;2024-03-29T14:00:29;6.68;;;2.65;;
8293;SDS011;4185;41.506;24.938;2024-03-29T14:02:57;10.10;;;3.38;;
8293;SDS011;4185;41.506;24.938;2024-03-29T14:05:24;11.13;;;3.55;;
8293;SDS011;4185;41.506;24.938;2024-03-29T14:07:52;10.47;;;3.03;;
8293;SDS011;4185;41.506;24.938;2024-03-29T14:10:19;7.07;;;2.95;;
8293;SDS011;4185;41.506;24.938;2024-03-29T14:12:45;5.60;;;2.72;;
8293;SDS011;4185;41.506;24.938;2024-03-29T14:15:13;7.85;;;3.13;;
8293;SDS011;4185;41.506;24.938;2024-03-29T14:17:40;8.90;;;2.65;;
8293;SDS011;4185;41.506;24.938;2024-03-29T14:20:07;9.52;;;2.40;;
8293;SDS011;4185;41.506;24.938;2024-03-29T14:22:35;8.93;;;3.27;;
8293;SDS011;4185;41.506;24.938;2024-03-29T14:25:04;7.25;;;3.22;;
8293;SDS011;4185;41.506;24.938;2024-03-29T14:27:35;10.75;;;3.75;;
8293;SDS011;4185;41.506;24.938;2024-03-29T14:30:11;10.93;;;3.00;;
8293;SDS011;4185;41.506;24.938;2024-03-29T14:32:39;11.95;;;2.90;;
8293;SDS011;4185;41.506;24.938;2024-03-29T14:35:07;9.70;;;2.72;;
8293;SDS011;4185;41.506;24.938;2024-03-29T14:37:35;8.82;;;2.58;;
8293;SDS011;4185;41.506;24.938;2024-03-29T14:40:05;11.73;;;3.15;;
8293;SDS011;4185;41.506;24.938;2024-03-29T14:42:33;6.65;;;2.78;;
8293;SDS011;4185;41.506;24.938;2024-03-29T14:45:01;9.88;;;3.35;;
8293;SDS011;4185;41.506;24.938;2024-03-29T14:47:29;10.27;;;2.90;;
8293;SDS011;4185;41.506;24.938;2024-03-29T14:49:57;9.25;;;2.65;;
8293;SDS011;4185;41.506;24.938;2024-03-29T14:52:24;13.20;;;2.45;;
8293;SDS011;4185;41.506;24.938;2024-03-29T14:54:51;10.40;;;2.40;;